sensor_id;sensor_type;location;lat;lon;timestamp;P1;P2;P0
65383;PMS5003;51986;52.788;41.368;2023-03-25T00:00:12;33.00;26.00;19.00
65383;PMS5003;51986;52.788;41.368;2023-03-25T00:02:48;30.00;24.00;16.00
65383;PMS5003;51986;52.788;41.368;2023-03-25T00:05:18;24.00;21.50;15.00
65383;PMS5003;51986;52.788;41.368;2023-03-25T00:07:48;30.75;24.75;18.00
65383;PMS5003;51986;52.788;41.368;2023-03-25T00:10:18;32.00;26.00;19.00
65383;PMS5003;51986;52.788;41.368;2023-03-25T00:12:45;33.00;27.00;20.00
65383;PMS5003;51986;52.788;41.368;2023-03-25T00:15:12;33.00;27.00;19.50
65383;PMS5003;51986;52.788;41.368;2023-03-25T00:17:39;28.25;24.00;16.50
65383;PMS5003;51986;52.788;41.368;2023-03-25T00:20:07;32.75;26.50;19.25
65383;PMS5003;51986;52.788;41.368;2023-03-25T00:22:34;25.00;22.25;16.00
65383;PMS5003;51986;52.788;41.368;2023-03-25T00:25:01;21.00;19.50;15.00
65383;PMS5003;51986;52.788;41.368;2023-03-25T00:27:28;24.00;22.00;16.00
65383;PMS5003;51986;52.788;41.368;2023-03-25T00:29:55;23.50;21.00;16.00
65383;PMS5003;51986;52.788;41.368;2023-03-25T00:32:22;30.25;25.75;19.00
65383;PMS5003;51986;52.788;41.368;2023-03-25T00:34:49;26.75;23.50;17.25
65383;PMS5003;51986;52.788;41.368;2023-03-25T00:37:16;26.00;22.50;16.50
65383;PMS5003;51986;52.788;41.368;2023-03-25T00:39:43;27.25;24.00;18.00
65383;PMS5003;51986;52.788;41.368;2023-03-25T00:42:10;24.75;22.00;17.00
65383;PMS5003;51986;52.788;41.368;2023-03-25T00:44:37;19.00;18.75;15.00
65383;PMS5003;51986;52.788;41.368;2023-03-25T00:47:04;17.00;17.00;13.00
65383;PMS5003;51986;52.788;41.368;2023-03-25T00:49:31;24.75;22.00;17.00
65383;PMS5003;51986;52.788;41.368;2023-03-25T00:51:58;27.75;24.50;18.50
65383;PMS5003;51986;52.788;41.368;2023-03-25T00:54:25;23.25;21.00;15.00
65383;PMS5003;51986;52.788;41.368;2023-03-25T00:56:53;21.00;18.50;14.00
65383;PMS5003;51986;52.788;41.368;2023-03-25T00:59:20;25.50;23.25;17.25
65383;PMS5003;51986;52.788;41.368;2023-03-25T01:01:46;22.25;20.25;15.25
65383;PMS5003;51986;52.788;41.368;2023-03-25T01:04:13;26.50;22.75;17.75
65383;PMS5003;51986;52.788;41.368;2023-03-25T01:06:41;21.00;19.25;14.25
65383;PMS5003;51986;52.788;41.368;2023-03-25T01:09:09;21.00;20.50;15.00
65383;PMS5003;51986;52.788;41.368;2023-03-25T01:11:38;25.00;22.00;17.00
65383;PMS5003;51986;52.788;41.368;2023-03-25T01:14:08;20.75;19.25;14.50
65383;PMS5003;51986;52.788;41.368;2023-03-25T01:16:39;21.00;17.00;13.00
65383;PMS5003;51986;52.788;41.368;2023-03-25T01:19:06;19.75;17.00;13.00
65383;PMS5003;51986;52.788;41.368;2023-03-25T01:21:34;21.00;20.00;15.25
65383;PMS5003;51986;52.788;41.368;2023-03-25T01:24:04;16.50;15.50;12.50
65383;PMS5003;51986;52.788;41.368;2023-03-25T01:26:34;14.75;14.00;10.00
65383;PMS5003;51986;52.788;41.368;2023-03-25T01:29:03;13.25;12.50;8.50
65383;PMS5003;51986;52.788;41.368;2023-03-25T01:31:31;23.00;21.75;16.25
65383;PMS5003;51986;52.788;41.368;2023-03-25T01:33:58;25.00;21.75;17.00
65383;PMS5003;51986;52.788;41.368;2023-03-25T01:36:25;27.00;23.00;18.00
65383;PMS5003;51986;52.788;41.368;2023-03-25T01:38:52;20.00;19.00;15.00
65383;PMS5003;51986;52.788;41.368;2023-03-25T01:41:20;18.50;17.00;14.00
65383;PMS5003;51986;52.788;41.368;2023-03-25T01:44:00;17.25;16.00;13.00
65383;PMS5003;51986;52.788;41.368;2023-03-25T01:46:37;14.00;12.00;10.00
65383;PMS5003;51986;52.788;41.368;2023-03-25T01:49:05;15.00;14.00;10.00
65383;PMS5003;51986;52.788;41.368;2023-03-25T01:51:36;17.75;16.75;13.50
65383;PMS5003;51986;52.788;41.368;2023-03-25T01:54:06;18.25;17.00;13.00
65383;PMS5003;51986;52.788;41.368;2023-03-25T01:56:35;21.00;20.00;14.25
65383;PMS5003;51986;52.788;41.368;2023-03-25T01:59:06;17.50;17.00;13.00
65383;PMS5003;51986;52.788;41.368;2023-03-25T02:01:35;20.00;18.25;14.00
65383;PMS5003;51986;52.788;41.368;2023-03-25T02:04:02;23.00;20.00;14.00
65383;PMS5003;51986;52.788;41.368;2023-03-25T02:06:32;20.50;19.00;13.00
65383;PMS5003;51986;52.788;41.368;2023-03-25T02:09:03;24.00;21.75;15.50
65383;PMS5003;51986;52.788;41.368;2023-03-25T02:11:32;19.75;17.75;12.25
65383;PMS5003;51986;52.788;41.368;2023-03-25T02:14:00;16.50;15.00;10.00
65383;PMS5003;51986;52.788;41.368;2023-03-25T02:22:32;23.00;21.00;14.25
65383;PMS5003;51986;52.788;41.368;2023-03-25T02:44:50;20.75;19.75;14.00
65383;PMS5003;51986;52.788;41.368;2023-03-25T02:47:33;19.75;17.75;12.75
65383;PMS5003;51986;52.788;41.368;2023-03-25T02:50:09;23.75;20.00;14.75
65383;PMS5003;51986;52.788;41.368;2023-03-25T02:52:46;27.00;21.75;16.00
65383;PMS5003;51986;52.788;41.368;2023-03-25T02:55:19;22.00;19.00;14.00
65383;PMS5003;51986;52.788;41.368;2023-03-25T02:57:49;18.00;18.00;13.00
65383;PMS5003;51986;52.788;41.368;2023-03-25T03:00:20;22.75;21.00;15.00
65383;PMS5003;51986;52.788;41.368;2023-03-25T03:03:00;23.00;21.00;16.00
65383;PMS5003;51986;52.788;41.368;2023-03-25T03:05:32;19.00;16.75;13.00
65383;PMS5003;51986;52.788;41.368;2023-03-25T03:16:50;19.50;18.00;14.00
65383;PMS5003;51986;52.788;41.368;2023-03-25T03:23:01;18.75;17.00;12.25
65383;PMS5003;51986;52.788;41.368;2023-03-25T03:25:47;22.00;19.50;15.00
65383;PMS5003;51986;52.788;41.368;2023-03-25T03:28:31;22.00;20.00;15.00
65383;PMS5003;51986;52.788;41.368;2023-03-25T03:31:14;16.50;15.00;12.00
65383;PMS5003;51986;52.788;41.368;2023-03-25T03:34:22;20.00;19.25;15.00
65383;PMS5003;51986;52.788;41.368;2023-03-25T03:36:54;17.25;17.25;10.75
65383;PMS5003;51986;52.788;41.368;2023-03-25T03:39:27;20.75;19.75;15.00
65383;PMS5003;51986;52.788;41.368;2023-03-25T03:42:06;16.50;14.50;11.50
65383;PMS5003;51986;52.788;41.368;2023-03-25T03:44:40;15.50;13.00;10.00
65383;PMS5003;51986;52.788;41.368;2023-03-25T03:47:17;21.25;18.50;14.75
65383;PMS5003;51986;52.788;41.368;2023-03-25T03:49:52;22.00;20.00;15.00
65383;PMS5003;51986;52.788;41.368;2023-03-25T03:55:37;21.25;20.25;15.75
65383;PMS5003;51986;52.788;41.368;2023-03-25T03:58:08;21.00;19.50;15.25
65383;PMS5003;51986;52.788;41.368;2023-03-25T04:00:45;20.00;19.50;14.00
65383;PMS5003;51986;52.788;41.368;2023-03-25T04:03:21;20.00;18.00;13.00
65383;PMS5003;51986;52.788;41.368;2023-03-25T04:05:59;18.00;15.00;12.00
65383;PMS5003;51986;52.788;41.368;2023-03-25T04:11:21;18.00;14.00;12.00
65383;PMS5003;51986;52.788;41.368;2023-03-25T04:13:53;14.00;12.00;9.75
65383;PMS5003;51986;52.788;41.368;2023-03-25T04:16:26;16.00;15.25;12.00
65383;PMS5003;51986;52.788;41.368;2023-03-25T04:18:53;14.25;14.00;12.00
65383;PMS5003;51986;52.788;41.368;2023-03-25T04:21:20;14.00;13.00;9.00
65383;PMS5003;51986;52.788;41.368;2023-03-25T04:23:47;15.75;14.00;10.00
65383;PMS5003;51986;52.788;41.368;2023-03-25T04:26:14;18.00;18.00;13.00
65383;PMS5003;51986;52.788;41.368;2023-03-25T04:28:41;20.50;19.00;14.50
65383;PMS5003;51986;52.788;41.368;2023-03-25T04:31:10;20.00;18.00;13.25
65383;PMS5003;51986;52.788;41.368;2023-03-25T04:33:39;21.25;19.50;14.25
65383;PMS5003;51986;52.788;41.368;2023-03-25T04:36:06;26.00;22.00;17.00
65383;PMS5003;51986;52.788;41.368;2023-03-25T04:38:33;19.25;18.00;14.00
65383;PMS5003;51986;52.788;41.368;2023-03-25T04:41:00;20.50;19.50;14.50
65383;PMS5003;51986;52.788;41.368;2023-03-25T04:43:27;25.50;22.00;16.75
65383;PMS5003;51986;52.788;41.368;2023-03-25T04:45:54;22.00;19.00;15.00
65383;PMS5003;51986;52.788;41.368;2023-03-25T04:48:22;24.75;21.00;16.00
65383;PMS5003;51986;52.788;41.368;2023-03-25T04:50:51;28.50;24.00;18.00
65383;PMS5003;51986;52.788;41.368;2023-03-25T04:53:18;23.00;21.25;16.00
65383;PMS5003;51986;52.788;41.368;2023-03-25T04:55:45;23.25;21.00;15.75
65383;PMS5003;51986;52.788;41.368;2023-03-25T04:58:15;26.25;22.00;16.25
65383;PMS5003;51986;52.788;41.368;2023-03-25T05:00:43;23.00;21.50;15.00
65383;PMS5003;51986;52.788;41.368;2023-03-25T05:03:13;30.75;25.25;18.75
65383;PMS5003;51986;52.788;41.368;2023-03-25T05:05:40;31.00;25.00;19.50
65383;PMS5003;51986;52.788;41.368;2023-03-25T05:08:07;26.25;22.25;16.50
65383;PMS5003;51986;52.788;41.368;2023-03-25T05:10:34;24.00;22.00;15.00
65383;PMS5003;51986;52.788;41.368;2023-03-25T05:13:03;27.50;24.00;17.00
65383;PMS5003;51986;52.788;41.368;2023-03-25T05:15:32;27.00;22.00;16.00
65383;PMS5003;51986;52.788;41.368;2023-03-25T05:18:01;31.75;24.75;18.00
65383;PMS5003;51986;52.788;41.368;2023-03-25T05:20:28;33.00;27.00;20.00
65383;PMS5003;51986;52.788;41.368;2023-03-25T05:22:55;30.50;24.00;18.00
65383;PMS5003;51986;52.788;41.368;2023-03-25T05:25:22;26.25;23.25;16.00
65383;PMS5003;51986;52.788;41.368;2023-03-25T05:27:49;30.25;24.50;18.00
65383;PMS5003;51986;52.788;41.368;2023-03-25T05:30:16;36.75;29.00;21.75
65383;PMS5003;51986;52.788;41.368;2023-03-25T05:32:43;39.00;30.75;22.75
65383;PMS5003;51986;52.788;41.368;2023-03-25T05:35:10;30.75;25.00;17.75
65383;PMS5003;51986;52.788;41.368;2023-03-25T05:37:37;32.00;26.50;19.25
65383;PMS5003;51986;52.788;41.368;2023-03-25T05:40:04;31.50;26.50;20.00
65383;PMS5003;51986;52.788;41.368;2023-03-25T05:42:41;31.00;25.50;19.00
65383;PMS5003;51986;52.788;41.368;2023-03-25T05:45:08;25.25;22.75;16.50
65383;PMS5003;51986;52.788;41.368;2023-03-25T05:47:35;32.00;27.00;19.00
65383;PMS5003;51986;52.788;41.368;2023-03-25T05:50:02;32.00;28.00;21.00
65383;PMS5003;51986;52.788;41.368;2023-03-25T05:52:29;26.50;23.00;17.75
65383;PMS5003;51986;52.788;41.368;2023-03-25T05:54:56;22.25;21.25;15.00
65383;PMS5003;51986;52.788;41.368;2023-03-25T05:57:26;27.00;22.50;17.00
65383;PMS5003;51986;52.788;41.368;2023-03-25T05:59:54;27.00;22.00;15.50
65383;PMS5003;51986;52.788;41.368;2023-03-25T06:02:20;23.25;20.75;15.00
65383;PMS5003;51986;52.788;41.368;2023-03-25T06:04:48;23.75;22.00;16.00
65383;PMS5003;51986;52.788;41.368;2023-03-25T06:07:15;24.50;21.00;15.00
65383;PMS5003;51986;52.788;41.368;2023-03-25T06:09:42;34.75;28.00;20.00
65383;PMS5003;51986;52.788;41.368;2023-03-25T06:12:09;31.00;26.75;19.00
65383;PMS5003;51986;52.788;41.368;2023-03-25T06:14:36;31.50;26.00;19.00
65383;PMS5003;51986;52.788;41.368;2023-03-25T06:17:03;28.00;23.50;17.75
65383;PMS5003;51986;52.788;41.368;2023-03-25T06:19:30;34.00;28.00;20.75
65383;PMS5003;51986;52.788;41.368;2023-03-25T06:21:57;30.50;25.00;18.00
65383;PMS5003;51986;52.788;41.368;2023-03-25T06:24:24;34.75;28.75;21.00
65383;PMS5003;51986;52.788;41.368;2023-03-25T06:26:51;34.00;28.00;21.00
65383;PMS5003;51986;52.788;41.368;2023-03-25T06:29:18;37.25;29.75;22.00
65383;PMS5003;51986;52.788;41.368;2023-03-25T06:31:45;34.25;28.00;20.00
65383;PMS5003;51986;52.788;41.368;2023-03-25T06:34:12;33.00;27.00;19.00
65383;PMS5003;51986;52.788;41.368;2023-03-25T06:36:39;35.25;29.50;20.75
65383;PMS5003;51986;52.788;41.368;2023-03-25T06:39:06;38.50;31.00;22.75
65383;PMS5003;51986;52.788;41.368;2023-03-25T06:41:34;35.25;28.50;21.00
65383;PMS5003;51986;52.788;41.368;2023-03-25T06:44:17;37.75;31.00;23.00
65383;PMS5003;51986;52.788;41.368;2023-03-25T06:47:22;38.50;31.25;23.00
65383;PMS5003;51986;52.788;41.368;2023-03-25T06:49:52;37.00;30.75;22.00
65383;PMS5003;51986;52.788;41.368;2023-03-25T06:52:19;34.00;27.00;19.75
65383;PMS5003;51986;52.788;41.368;2023-03-25T06:54:46;32.75;26.00;18.25
65383;PMS5003;51986;52.788;41.368;2023-03-25T06:57:13;33.25;27.25;19.00
65383;PMS5003;51986;52.788;41.368;2023-03-25T06:59:40;32.00;27.00;18.00
65383;PMS5003;51986;52.788;41.368;2023-03-25T07:02:08;28.00;24.00;17.75
65383;PMS5003;51986;52.788;41.368;2023-03-25T07:04:42;33.75;27.00;20.00
65383;PMS5003;51986;52.788;41.368;2023-03-25T07:07:09;32.75;26.50;19.00
65383;PMS5003;51986;52.788;41.368;2023-03-25T07:09:36;32.00;26.00;18.50
65383;PMS5003;51986;52.788;41.368;2023-03-25T07:12:03;25.00;22.50;15.50
65383;PMS5003;51986;52.788;41.368;2023-03-25T07:14:33;28.50;23.25;16.00
65383;PMS5003;51986;52.788;41.368;2023-03-25T07:17:00;29.00;24.00;16.00
65383;PMS5003;51986;52.788;41.368;2023-03-25T07:19:27;30.00;24.00;17.50
65383;PMS5003;51986;52.788;41.368;2023-03-25T07:21:54;30.50;24.25;17.00
65383;PMS5003;51986;52.788;41.368;2023-03-25T07:24:21;36.00;28.00;20.50
65383;PMS5003;51986;52.788;41.368;2023-03-25T07:26:48;35.00;29.00;20.00
65383;PMS5003;51986;52.788;41.368;2023-03-25T07:29:18;30.50;26.00;18.00
65383;PMS5003;51986;52.788;41.368;2023-03-25T07:31:45;27.75;24.00;17.25
65383;PMS5003;51986;52.788;41.368;2023-03-25T07:34:12;34.00;28.00;20.25
65383;PMS5003;51986;52.788;41.368;2023-03-25T07:36:39;36.00;30.00;21.00
65383;PMS5003;51986;52.788;41.368;2023-03-25T07:39:06;34.00;27.50;19.25
65383;PMS5003;51986;52.788;41.368;2023-03-25T07:41:33;31.25;25.50;18.00
65383;PMS5003;51986;52.788;41.368;2023-03-25T07:44:09;34.00;27.50;20.00
65383;PMS5003;51986;52.788;41.368;2023-03-25T07:46:37;31.00;26.00;18.00
65383;PMS5003;51986;52.788;41.368;2023-03-25T07:49:04;32.00;25.00;18.00
65383;PMS5003;51986;52.788;41.368;2023-03-25T07:51:31;35.50;28.00;20.00
65383;PMS5003;51986;52.788;41.368;2023-03-25T07:53:58;35.00;28.00;19.75
65383;PMS5003;51986;52.788;41.368;2023-03-25T07:56:31;32.50;28.00;19.00
65383;PMS5003;51986;52.788;41.368;2023-03-25T07:58:59;36.00;29.00;21.50
65383;PMS5003;51986;52.788;41.368;2023-03-25T08:01:26;35.50;28.00;21.00
65383;PMS5003;51986;52.788;41.368;2023-03-25T08:03:53;38.00;31.00;23.00
65383;PMS5003;51986;52.788;41.368;2023-03-25T08:06:20;36.00;29.50;22.00
65383;PMS5003;51986;52.788;41.368;2023-03-25T08:08:47;37.50;31.00;22.00
65383;PMS5003;51986;52.788;41.368;2023-03-25T08:11:14;40.00;33.00;24.00
65383;PMS5003;51986;52.788;41.368;2023-03-25T08:13:41;42.00;34.00;24.00
65383;PMS5003;51986;52.788;41.368;2023-03-25T08:16:11;42.00;33.00;25.00
65383;PMS5003;51986;52.788;41.368;2023-03-25T08:18:40;42.75;35.00;26.00
65383;PMS5003;51986;52.788;41.368;2023-03-25T08:21:07;39.50;31.25;23.00
65383;PMS5003;51986;52.788;41.368;2023-03-25T08:23:34;39.25;31.00;23.00
65383;PMS5003;51986;52.788;41.368;2023-03-25T08:26:02;37.00;30.00;22.00
65383;PMS5003;51986;52.788;41.368;2023-03-25T08:28:30;40.75;32.00;23.75
65383;PMS5003;51986;52.788;41.368;2023-03-25T08:30:57;40.50;32.75;24.00
65383;PMS5003;51986;52.788;41.368;2023-03-25T08:33:24;40.00;32.50;23.75
65383;PMS5003;51986;52.788;41.368;2023-03-25T08:35:52;41.00;34.00;25.00
65383;PMS5003;51986;52.788;41.368;2023-03-25T08:38:19;39.50;33.00;24.00
65383;PMS5003;51986;52.788;41.368;2023-03-25T08:40:47;42.50;34.00;24.00
65383;PMS5003;51986;52.788;41.368;2023-03-25T08:43:14;38.75;31.00;22.50
65383;PMS5003;51986;52.788;41.368;2023-03-25T08:45:41;38.00;30.00;22.00
65383;PMS5003;51986;52.788;41.368;2023-03-25T08:48:08;41.00;33.00;24.00
65383;PMS5003;51986;52.788;41.368;2023-03-25T08:50:35;38.25;30.50;22.00
65383;PMS5003;51986;52.788;41.368;2023-03-25T08:53:02;39.00;32.00;23.75
65383;PMS5003;51986;52.788;41.368;2023-03-25T08:55:29;38.50;31.00;22.50
65383;PMS5003;51986;52.788;41.368;2023-03-25T08:57:58;37.00;30.00;22.00
65383;PMS5003;51986;52.788;41.368;2023-03-25T09:00:27;35.50;29.00;21.25
65383;PMS5003;51986;52.788;41.368;2023-03-25T09:02:54;41.25;33.50;24.50
65383;PMS5003;51986;52.788;41.368;2023-03-25T09:05:22;38.00;31.00;22.50
65383;PMS5003;51986;52.788;41.368;2023-03-25T09:07:49;39.50;32.00;23.25
65383;PMS5003;51986;52.788;41.368;2023-03-25T09:10:17;36.25;29.75;22.00
65383;PMS5003;51986;52.788;41.368;2023-03-25T09:12:44;39.25;33.00;24.00
65383;PMS5003;51986;52.788;41.368;2023-03-25T09:15:11;44.25;35.00;26.25
65383;PMS5003;51986;52.788;41.368;2023-03-25T09:17:39;40.00;32.00;24.00
65383;PMS5003;51986;52.788;41.368;2023-03-25T09:20:06;37.50;30.00;22.00
65383;PMS5003;51986;52.788;41.368;2023-03-25T09:22:36;36.00;30.00;22.00
65383;PMS5003;51986;52.788;41.368;2023-03-25T09:25:03;40.00;32.50;24.00
65383;PMS5003;51986;52.788;41.368;2023-03-25T09:27:31;43.00;35.00;26.00
65383;PMS5003;51986;52.788;41.368;2023-03-25T09:29:58;40.00;32.00;24.50
65383;PMS5003;51986;52.788;41.368;2023-03-25T09:32:25;37.50;31.00;23.00
65383;PMS5003;51986;52.788;41.368;2023-03-25T09:34:52;38.75;32.00;22.25
65383;PMS5003;51986;52.788;41.368;2023-03-25T09:37:19;39.50;33.00;24.00
65383;PMS5003;51986;52.788;41.368;2023-03-25T09:39:45;42.00;34.00;24.25
65383;PMS5003;51986;52.788;41.368;2023-03-25T09:45:16;40.00;31.00;23.00
65383;PMS5003;51986;52.788;41.368;2023-03-25T09:50:29;40.00;32.75;24.00
65383;PMS5003;51986;52.788;41.368;2023-03-25T09:53:02;40.00;32.50;24.00
65383;PMS5003;51986;52.788;41.368;2023-03-25T09:55:49;41.50;34.00;25.00
65383;PMS5003;51986;52.788;41.368;2023-03-25T09:58:33;40.00;31.50;23.50
65383;PMS5003;51986;52.788;41.368;2023-03-25T10:04:47;39.25;31.00;23.00
65383;PMS5003;51986;52.788;41.368;2023-03-25T10:16:34;38.00;31.00;23.00
65383;PMS5003;51986;52.788;41.368;2023-03-25T10:24:31;40.50;33.00;25.00
65383;PMS5003;51986;52.788;41.368;2023-03-25T10:29:56;40.50;32.50;24.25
65383;PMS5003;51986;52.788;41.368;2023-03-25T10:32:39;40.25;32.50;24.00
65383;PMS5003;51986;52.788;41.368;2023-03-25T10:35:17;43.25;34.75;26.00
65383;PMS5003;51986;52.788;41.368;2023-03-25T10:37:52;41.25;33.00;24.50
65383;PMS5003;51986;52.788;41.368;2023-03-25T10:40:25;38.50;32.25;24.00
65383;PMS5003;51986;52.788;41.368;2023-03-25T10:43:00;38.50;31.00;23.00
65383;PMS5003;51986;52.788;41.368;2023-03-25T10:45:31;38.50;32.00;24.00
65383;PMS5003;51986;52.788;41.368;2023-03-25T10:48:42;38.00;31.50;23.00
65383;PMS5003;51986;52.788;41.368;2023-03-25T10:50:51;37.00;30.00;21.75
65383;PMS5003;51986;52.788;41.368;2023-03-25T10:53:24;37.00;30.00;22.00
65383;PMS5003;51986;52.788;41.368;2023-03-25T10:55:55;40.00;33.00;24.75
65383;PMS5003;51986;52.788;41.368;2023-03-25T10:58:30;43.00;34.00;27.00
65383;PMS5003;51986;52.788;41.368;2023-03-25T11:00:58;42.00;34.00;26.00
65383;PMS5003;51986;52.788;41.368;2023-03-25T11:03:30;40.00;32.00;23.00
65383;PMS5003;51986;52.788;41.368;2023-03-25T11:05:59;39.00;31.00;22.00
65383;PMS5003;51986;52.788;41.368;2023-03-25T11:08:27;39.75;33.00;24.25
65383;PMS5003;51986;52.788;41.368;2023-03-25T11:10:53;39.50;31.00;23.00
65383;PMS5003;51986;52.788;41.368;2023-03-25T11:13:22;39.50;32.50;24.00
65383;PMS5003;51986;52.788;41.368;2023-03-25T11:15:54;41.00;34.00;24.00
65383;PMS5003;51986;52.788;41.368;2023-03-25T11:18:42;41.75;34.00;25.00
65383;PMS5003;51986;52.788;41.368;2023-03-25T11:21:10;39.25;31.75;23.00
65383;PMS5003;51986;52.788;41.368;2023-03-25T11:23:46;41.50;33.25;24.75
65383;PMS5003;51986;52.788;41.368;2023-03-25T11:26:19;45.00;35.75;27.75
65383;PMS5003;51986;52.788;41.368;2023-03-25T11:29:01;43.00;35.00;25.50
65383;PMS5003;51986;52.788;41.368;2023-03-25T11:31:33;38.00;31.50;23.50
65383;PMS5003;51986;52.788;41.368;2023-03-25T11:34:04;41.00;32.00;25.00
65383;PMS5003;51986;52.788;41.368;2023-03-25T11:36:46;39.00;32.00;23.00
65383;PMS5003;51986;52.788;41.368;2023-03-25T11:41:48;40.00;33.00;24.00
65383;PMS5003;51986;52.788;41.368;2023-03-25T11:44:24;39.00;31.00;23.00
65383;PMS5003;51986;52.788;41.368;2023-03-25T11:46:55;43.00;34.50;25.50
65383;PMS5003;51986;52.788;41.368;2023-03-25T11:49:26;41.00;32.00;24.00
65383;PMS5003;51986;52.788;41.368;2023-03-25T11:51:56;39.00;30.00;23.00
65383;PMS5003;51986;52.788;41.368;2023-03-25T11:54:26;39.25;30.00;23.00
65383;PMS5003;51986;52.788;41.368;2023-03-25T11:56:54;38.50;30.50;23.00
65383;PMS5003;51986;52.788;41.368;2023-03-25T11:59:23;37.00;30.00;22.00
65383;PMS5003;51986;52.788;41.368;2023-03-25T12:02:02;39.00;31.50;23.50
65383;PMS5003;51986;52.788;41.368;2023-03-25T12:07:42;39.50;32.50;23.50
65383;PMS5003;51986;52.788;41.368;2023-03-25T12:10:54;38.00;31.00;22.50
65383;PMS5003;51986;52.788;41.368;2023-03-25T12:16:07;37.00;30.00;22.00
65383;PMS5003;51986;52.788;41.368;2023-03-25T12:21:42;39.50;32.25;24.25
65383;PMS5003;51986;52.788;41.368;2023-03-25T12:43:21;36.00;31.00;23.00
65383;PMS5003;51986;52.788;41.368;2023-03-25T12:51:56;38.00;32.00;24.00
65383;PMS5003;51986;52.788;41.368;2023-03-25T13:00:29;35.00;29.00;21.75
65383;PMS5003;51986;52.788;41.368;2023-03-25T13:03:24;38.25;31.25;24.00
65383;PMS5003;51986;52.788;41.368;2023-03-25T13:11:26;40.25;33.00;24.00
65383;PMS5003;51986;52.788;41.368;2023-03-25T13:14:04;42.00;34.00;25.00
65383;PMS5003;51986;52.788;41.368;2023-03-25T13:16:36;39.00;31.75;23.50
65383;PMS5003;51986;52.788;41.368;2023-03-25T13:19:12;36.25;30.00;22.00
65383;PMS5003;51986;52.788;41.368;2023-03-25T13:21:44;39.00;32.00;24.00
65383;PMS5003;51986;52.788;41.368;2023-03-25T13:24:20;38.25;32.50;23.50
65383;PMS5003;51986;52.788;41.368;2023-03-25T13:26:53;40.25;32.50;24.25
65383;PMS5003;51986;52.788;41.368;2023-03-25T13:29:40;38.00;31.25;23.50
65383;PMS5003;51986;52.788;41.368;2023-03-25T13:32:31;37.00;31.00;23.50
65383;PMS5003;51986;52.788;41.368;2023-03-25T13:35:11;35.25;28.00;22.00
65383;PMS5003;51986;52.788;41.368;2023-03-25T13:37:49;41.50;33.00;25.00
65383;PMS5003;51986;52.788;41.368;2023-03-25T13:40:29;38.75;31.00;23.00
65383;PMS5003;51986;52.788;41.368;2023-03-25T13:43:07;36.25;29.25;21.00
65383;PMS5003;51986;52.788;41.368;2023-03-25T13:45:46;36.75;31.00;21.75
65383;PMS5003;51986;52.788;41.368;2023-03-25T13:48:18;39.50;31.50;22.75
65383;PMS5003;51986;52.788;41.368;2023-03-25T13:50:52;38.00;30.00;22.00
65383;PMS5003;51986;52.788;41.368;2023-03-25T13:53:21;37.00;31.00;22.25
65383;PMS5003;51986;52.788;41.368;2023-03-25T14:06:57;41.00;34.00;25.00
65383;PMS5003;51986;52.788;41.368;2023-03-25T14:12:52;36.25;29.00;21.00
65383;PMS5003;51986;52.788;41.368;2023-03-25T14:15:33;42.00;33.50;25.00
65383;PMS5003;51986;52.788;41.368;2023-03-25T14:18:03;44.00;35.00;26.25
65383;PMS5003;51986;52.788;41.368;2023-03-25T14:20:38;38.00;31.00;23.00
65383;PMS5003;51986;52.788;41.368;2023-03-25T14:23:07;38.25;31.00;22.50
65383;PMS5003;51986;52.788;41.368;2023-03-25T14:25:42;38.00;31.00;22.00
65383;PMS5003;51986;52.788;41.368;2023-03-25T14:28:17;38.00;31.00;21.00
65383;PMS5003;51986;52.788;41.368;2023-03-25T14:31:39;33.00;28.50;21.00
65383;PMS5003;51986;52.788;41.368;2023-03-25T14:36:27;39.00;32.00;23.00
65383;PMS5003;51986;52.788;41.368;2023-03-25T14:39:08;38.50;31.00;23.00
65383;PMS5003;51986;52.788;41.368;2023-03-25T14:44:21;36.25;30.00;21.00
65383;PMS5003;51986;52.788;41.368;2023-03-25T14:46:51;39.50;32.00;23.00
65383;PMS5003;51986;52.788;41.368;2023-03-25T14:49:25;42.75;34.00;24.25
65383;PMS5003;51986;52.788;41.368;2023-03-25T14:52:13;38.75;30.25;23.00
65383;PMS5003;51986;52.788;41.368;2023-03-25T14:54:42;38.50;31.00;23.00
65383;PMS5003;51986;52.788;41.368;2023-03-25T14:57:16;38.00;31.00;23.00
65383;PMS5003;51986;52.788;41.368;2023-03-25T14:59:48;36.00;29.25;21.00
65383;PMS5003;51986;52.788;41.368;2023-03-25T15:02:27;40.50;32.50;23.75
65383;PMS5003;51986;52.788;41.368;2023-03-25T15:05:16;36.75;29.00;22.00
65383;PMS5003;51986;52.788;41.368;2023-03-25T15:07:52;35.00;29.00;21.50
65383;PMS5003;51986;52.788;41.368;2023-03-25T15:10:24;35.00;28.00;21.00
65383;PMS5003;51986;52.788;41.368;2023-03-25T15:15:51;39.00;31.00;24.00
65383;PMS5003;51986;52.788;41.368;2023-03-25T15:21:10;37.00;30.00;22.50
65383;PMS5003;51986;52.788;41.368;2023-03-25T15:23:50;39.00;31.00;23.00
65383;PMS5003;51986;52.788;41.368;2023-03-25T15:26:38;39.00;31.00;23.00
65383;PMS5003;51986;52.788;41.368;2023-03-25T15:40:33;36.00;29.00;22.00
65383;PMS5003;51986;52.788;41.368;2023-03-25T15:46:45;32.75;26.75;19.00
65383;PMS5003;51986;52.788;41.368;2023-03-25T15:52:15;39.50;32.25;23.50
65383;PMS5003;51986;52.788;41.368;2023-03-25T15:55:04;35.75;29.00;21.25
65383;PMS5003;51986;52.788;41.368;2023-03-25T15:57:53;34.00;28.00;21.00
65383;PMS5003;51986;52.788;41.368;2023-03-25T16:00:34;38.75;31.75;23.00
65383;PMS5003;51986;52.788;41.368;2023-03-25T16:03:07;37.00;30.00;23.00
65383;PMS5003;51986;52.788;41.368;2023-03-25T16:05:44;35.25;28.25;21.25
65383;PMS5003;51986;52.788;41.368;2023-03-25T16:08:17;39.50;32.50;24.00
65383;PMS5003;51986;52.788;41.368;2023-03-25T16:10:50;37.25;30.00;22.50
65383;PMS5003;51986;52.788;41.368;2023-03-25T16:13:17;40.00;32.50;23.75
65383;PMS5003;51986;52.788;41.368;2023-03-25T16:15:48;42.50;34.00;24.75
65383;PMS5003;51986;52.788;41.368;2023-03-25T16:18:21;38.75;31.50;22.25
65383;PMS5003;51986;52.788;41.368;2023-03-25T16:20:53;34.25;29.00;20.75
65383;PMS5003;51986;52.788;41.368;2023-03-25T16:23:23;34.00;28.00;21.00
65383;PMS5003;51986;52.788;41.368;2023-03-25T16:25:51;38.50;31.00;22.50
65383;PMS5003;51986;52.788;41.368;2023-03-25T16:28:30;38.75;31.00;23.00
65383;PMS5003;51986;52.788;41.368;2023-03-25T16:31:05;37.75;30.50;23.00
65383;PMS5003;51986;52.788;41.368;2023-03-25T16:33:36;40.50;32.75;23.00
65383;PMS5003;51986;52.788;41.368;2023-03-25T16:36:07;38.25;31.00;23.00
65383;PMS5003;51986;52.788;41.368;2023-03-25T16:38:42;40.50;32.50;24.00